sensor_id;sensor_type;location;lat;lon;timestamp;temperature;humidity
25568;DHT22;13455;51.480;7.594;2024-02-28T10:17:21;7.10;99.90
25568;DHT22;13455;51.480;7.594;2024-02-28T10:19:47;7.10;99.90
25568;DHT22;13455;51.480;7.594;2024-02-28T10:22:12;7.20;99.90
25568;DHT22;13455;51.480;7.594;2024-02-28T10:24:38;7.40;99.90
25568;DHT22;13455;51.480;7.594;2024-02-28T10:27:04;7.50;99.90
25568;DHT22;13455;51.480;7.594;2024-02-28T10:29:30;7.70;99.90
25568;DHT22;13455;51.480;7.594;2024-02-28T10:31:58;7.80;99.90
25568;DHT22;13455;51.480;7.594;2024-02-28T10:34:24;7.90;99.90
25568;DHT22;13455;51.480;7.594;2024-02-28T10:36:50;8.00;99.90
25568;DHT22;13455;51.480;7.594;2024-02-28T10:39:16;8.10;99.90
25568;DHT22;13455;51.480;7.594;2024-02-28T10:41:42;8.10;99.90
25568;DHT22;13455;51.480;7.594;2024-02-28T10:44:09;8.40;99.90
25568;DHT22;13455;51.480;7.594;2024-02-28T10:46:38;8.20;99.90
25568;DHT22;13455;51.480;7.594;2024-02-28T10:49:08;8.30;99.90
25568;DHT22;13455;51.480;7.594;2024-02-28T10:51:35;8.40;99.90
25568;DHT22;13455;51.480;7.594;2024-02-28T10:54:11;8.70;99.90
25568;DHT22;13455;51.480;7.594;2024-02-28T10:56:39;8.70;99.90
25568;DHT22;13455;51.480;7.594;2024-02-28T10:59:09;8.90;99.90
25568;DHT22;13455;51.480;7.594;2024-02-28T11:01:36;8.90;99.90
25568;DHT22;13455;51.480;7.594;2024-02-28T11:04:03;8.90;99.90
25568;DHT22;13455;51.480;7.594;2024-02-28T11:06:29;9.10;99.90
25568;DHT22;13455;51.480;7.594;2024-02-28T11:08:55;9.30;99.90
25568;DHT22;13455;51.480;7.594;2024-02-28T11:11:22;9.50;99.90
25568;DHT22;13455;51.480;7.594;2024-02-28T11:16:27;9.80;99.90
25568;DHT22;13455;51.480;7.594;2024-02-28T11:18:53;10.10;99.90
25568;DHT22;13455;51.480;7.594;2024-02-28T11:21:19;10.00;99.90
25568;DHT22;13455;51.480;7.594;2024-02-28T11:23:47;10.40;99.90
25568;DHT22;13455;51.480;7.594;2024-02-28T11:26:13;10.50;99.90
25568;DHT22;13455;51.480;7.594;2024-02-28T11:28:39;10.70;99.90
25568;DHT22;13455;51.480;7.594;2024-02-28T11:31:05;10.80;99.90
25568;DHT22;13455;51.480;7.594;2024-02-28T11:33:31;10.90;99.90
25568;DHT22;13455;51.480;7.594;2024-02-28T11:35:59;11.20;99.90
25568;DHT22;13455;51.480;7.594;2024-02-28T11:38:27;11.30;99.90
25568;DHT22;13455;51.480;7.594;2024-02-28T11:40:53;11.50;99.90
25568;DHT22;13455;51.480;7.594;2024-02-28T11:43:20;11.90;99.90
25568;DHT22;13455;51.480;7.594;2024-02-28T11:45:46;11.90;99.90
25568;DHT22;13455;51.480;7.594;2024-02-28T11:48:16;12.10;99.90
25568;DHT22;13455;51.480;7.594;2024-02-28T11:53:08;12.40;99.90
25568;DHT22;13455;51.480;7.594;2024-02-28T11:55:34;12.80;99.90
25568;DHT22;13455;51.480;7.594;2024-02-28T11:58:01;13.20;99.90
25568;DHT22;13455;51.480;7.594;2024-02-28T12:02:52;12.80;99.90
25568;DHT22;13455;51.480;7.594;2024-02-28T12:05:29;13.30;99.90
25568;DHT22;13455;51.480;7.594;2024-02-28T12:07:55;13.00;99.90
25568;DHT22;13455;51.480;7.594;2024-02-28T12:10:22;13.20;99.90
25568;DHT22;13455;51.480;7.594;2024-02-28T12:12:48;13.20;99.90
25568;DHT22;13455;51.480;7.594;2024-02-28T12:15:15;13.50;99.90
25568;DHT22;13455;51.480;7.594;2024-02-28T12:17:42;13.80;99.90
25568;DHT22;13455;51.480;7.594;2024-02-28T12:20:08;14.10;99.90
25568;DHT22;13455;51.480;7.594;2024-02-28T12:27:30;14.50;99.90
25568;DHT22;13455;51.480;7.594;2024-02-28T12:29:56;14.60;99.90
25568;DHT22;13455;51.480;7.594;2024-02-28T12:34:48;15.00;99.90
25568;DHT22;13455;51.480;7.594;2024-02-28T12:42:07;15.30;99.90
25568;DHT22;13455;51.480;7.594;2024-02-28T12:44:32;15.60;99.90
25568;DHT22;13455;51.480;7.594;2024-02-28T12:46:58;15.80;99.90
25568;DHT22;13455;51.480;7.594;2024-02-28T12:51:50;15.90;99.90
25568;DHT22;13455;51.480;7.594;2024-02-28T12:54:16;16.20;99.90
25568;DHT22;13455;51.480;7.594;2024-02-28T12:56:42;16.30;99.90
25568;DHT22;13455;51.480;7.594;2024-02-28T12:59:11;16.80;99.90
25568;DHT22;13455;51.480;7.594;2024-02-28T13:06:29;17.20;99.90
25568;DHT22;13455;51.480;7.594;2024-02-28T13:08:55;17.00;99.90
25568;DHT22;13455;51.480;7.594;2024-02-28T13:11:22;17.50;99.90
25568;DHT22;13455;51.480;7.594;2024-02-28T13:21:07;18.10;98.90
25568;DHT22;13455;51.480;7.594;2024-02-28T13:26:00;18.20;96.90
25568;DHT22;13455;51.480;7.594;2024-02-28T13:28:27;18.10;94.50
25568;DHT22;13455;51.480;7.594;2024-02-28T13:35:51;18.10;92.40
25568;DHT22;13455;51.480;7.594;2024-02-28T13:43:10;17.80;89.30
25568;DHT22;13455;51.480;7.594;2024-02-28T13:45:38;17.70;89.60
25568;DHT22;13455;51.480;7.594;2024-02-28T13:48:19;17.60;89.40
25568;DHT22;13455;51.480;7.594;2024-02-28T13:50:46;17.40;89.30
25568;DHT22;13455;51.480;7.594;2024-02-28T13:53:13;17.20;88.60
25568;DHT22;13455;51.480;7.594;2024-02-28T13:55:38;17.00;87.60
25568;DHT22;13455;51.480;7.594;2024-02-28T14:27:21;16.80;89.40
25568;DHT22;13455;51.480;7.594;2024-02-28T14:29:47;16.10;90.00
25568;DHT22;13455;51.480;7.594;2024-02-28T14:32:15;15.90;88.80
25568;DHT22;13455;51.480;7.594;2024-02-28T14:34:41;15.40;87.10
25568;DHT22;13455;51.480;7.594;2024-02-28T14:44:25;15.40;98.10
25568;DHT22;13455;51.480;7.594;2024-02-28T14:51:44;15.00;90.50
25568;DHT22;13455;51.480;7.594;2024-02-28T14:56:40;14.80;91.00
25568;DHT22;13455;51.480;7.594;2024-02-28T15:01:32;14.10;91.00
25568;DHT22;13455;51.480;7.594;2024-02-28T15:11:16;14.30;91.50
25568;DHT22;13455;51.480;7.594;2024-02-28T15:13:41;14.30;91.80
25568;DHT22;13455;51.480;7.594;2024-02-28T15:16:07;14.40;92.70
25568;DHT22;13455;51.480;7.594;2024-02-28T15:28:20;13.90;92.10
25568;DHT22;13455;51.480;7.594;2024-02-28T15:30:46;13.70;92.30
25568;DHT22;13455;51.480;7.594;2024-02-28T15:35:39;13.70;92.40
25568;DHT22;13455;51.480;7.594;2024-02-28T15:38:05;13.80;93.00
25568;DHT22;13455;51.480;7.594;2024-02-28T15:55:10;13.10;93.70
25568;DHT22;13455;51.480;7.594;2024-02-28T15:57:39;13.00;94.30
25568;DHT22;13455;51.480;7.594;2024-02-28T16:00:05;12.90;94.20
25568;DHT22;13455;51.480;7.594;2024-02-28T16:02:31;12.70;95.50
25568;DHT22;13455;51.480;7.594;2024-02-28T16:04:57;12.70;95.10
25568;DHT22;13455;51.480;7.594;2024-02-28T16:07:23;12.50;95.70
25568;DHT22;13455;51.480;7.594;2024-02-28T16:12:15;12.10;96.00
25568;DHT22;13455;51.480;7.594;2024-02-28T16:14:41;12.00;96.70
25568;DHT22;13455;51.480;7.594;2024-02-28T16:24:28;11.60;97.70
25568;DHT22;13455;51.480;7.594;2024-02-28T16:48:53;11.10;99.90
25568;DHT22;13455;51.480;7.594;2024-02-28T16:51:20;10.80;99.90
25568;DHT22;13455;51.480;7.594;2024-02-28T16:53:46;10.80;99.90
25568;DHT22;13455;51.480;7.594;2024-02-28T16:56:12;10.70;99.90
25568;DHT22;13455;51.480;7.594;2024-02-28T16:58:37;10.60;99.90
25568;DHT22;13455;51.480;7.594;2024-02-28T17:05:59;11.20;99.90
25568;DHT22;13455;51.480;7.594;2024-02-28T17:18:09;10.00;99.90
25568;DHT22;13455;51.480;7.594;2024-02-28T17:20:35;9.90;99.90
25568;DHT22;13455;51.480;7.594;2024-02-28T17:25:26;9.70;99.90
25568;DHT22;13455;51.480;7.594;2024-02-28T17:30:18;9.60;99.90
25568;DHT22;13455;51.480;7.594;2024-02-28T17:37:37;9.30;99.90
25568;DHT22;13455;51.480;7.594;2024-02-28T17:40:03;9.30;99.90
25568;DHT22;13455;51.480;7.594;2024-02-28T17:42:29;9.40;99.90
25568;DHT22;13455;51.480;7.594;2024-02-28T17:44:55;9.10;99.90
25568;DHT22;13455;51.480;7.594;2024-02-28T17:47:21;9.60;99.90
25568;DHT22;13455;51.480;7.594;2024-02-28T17:49:49;9.30;99.90
25568;DHT22;13455;51.480;7.594;2024-02-28T17:52:14;9.00;99.90
25568;DHT22;13455;51.480;7.594;2024-02-28T17:54:40;9.00;99.90
25568;DHT22;13455;51.480;7.594;2024-02-28T17:57:06;8.90;99.90
25568;DHT22;13455;51.480;7.594;2024-02-28T17:59:32;8.90;99.90
25568;DHT22;13455;51.480;7.594;2024-02-28T18:04:24;8.80;99.90
25568;DHT22;13455;51.480;7.594;2024-02-28T18:06:49;8.80;99.90
25568;DHT22;13455;51.480;7.594;2024-02-28T18:09:15;8.80;99.90
25568;DHT22;13455;51.480;7.594;2024-02-28T18:11:44;8.80;99.90
25568;DHT22;13455;51.480;7.594;2024-02-28T18:14:09;8.60;99.90
25568;DHT22;13455;51.480;7.594;2024-02-28T18:16:37;8.60;99.90
25568;DHT22;13455;51.480;7.594;2024-02-28T18:19:03;8.60;99.90
25568;DHT22;13455;51.480;7.594;2024-02-28T18:21:30;8.40;99.90
25568;DHT22;13455;51.480;7.594;2024-02-28T18:23:57;8.40;99.90
25568;DHT22;13455;51.480;7.594;2024-02-28T18:26:23;8.40;99.90
25568;DHT22;13455;51.480;7.594;2024-02-28T18:28:49;8.30;99.90
25568;DHT22;13455;51.480;7.594;2024-02-28T18:31:14;8.20;99.90
25568;DHT22;13455;51.480;7.594;2024-02-28T18:33:40;8.20;99.90
25568;DHT22;13455;51.480;7.594;2024-02-28T18:36:06;8.10;99.90
25568;DHT22;13455;51.480;7.594;2024-02-28T18:38:31;8.10;99.90
25568;DHT22;13455;51.480;7.594;2024-02-28T18:40:57;8.00;99.90
25568;DHT22;13455;51.480;7.594;2024-02-28T18:43:24;8.00;99.90
25568;DHT22;13455;51.480;7.594;2024-02-28T18:45:49;7.90;99.90
25568;DHT22;13455;51.480;7.594;2024-02-28T18:48:15;7.90;99.90
25568;DHT22;13455;51.480;7.594;2024-02-28T18:50:41;7.90;99.90
25568;DHT22;13455;51.480;7.594;2024-02-28T18:53:07;7.80;99.90
25568;DHT22;13455;51.480;7.594;2024-02-28T18:55:32;7.80;99.90
25568;DHT22;13455;51.480;7.594;2024-02-28T18:57:58;7.70;99.90
25568;DHT22;13455;51.480;7.594;2024-02-28T19:00:24;8.00;99.90
25568;DHT22;13455;51.480;7.594;2024-02-28T19:19:55;7.50;99.90
25568;DHT22;13455;51.480;7.594;2024-02-28T19:24:50;7.50;99.90
25568;DHT22;13455;51.480;7.594;2024-02-28T19:34:34;7.10;99.90
25568;DHT22;13455;51.480;7.594;2024-02-28T19:37:00;7.30;99.90
25568;DHT22;13455;51.480;7.594;2024-02-28T19:39:26;7.10;99.90
25568;DHT22;13455;51.480;7.594;2024-02-28T19:44:17;8.10;99.90
25568;DHT22;13455;51.480;7.594;2024-02-28T19:46:46;7.00;99.90
25568;DHT22;13455;51.480;7.594;2024-02-28T19:49:12;7.40;99.90
25568;DHT22;13455;51.480;7.594;2024-02-28T19:51:38;6.90;99.90
25568;DHT22;13455;51.480;7.594;2024-02-28T19:54:06;7.10;99.90
25568;DHT22;13455;51.480;7.594;2024-02-28T19:56:31;7.10;99.90
25568;DHT22;13455;51.480;7.594;2024-02-28T19:58:57;7.10;99.90
25568;DHT22;13455;51.480;7.594;2024-02-28T20:03:48;6.80;99.90
25568;DHT22;13455;51.480;7.594;2024-02-28T20:06:14;6.70;99.90
25568;DHT22;13455;51.480;7.594;2024-02-28T20:08:40;6.70;99.90
25568;DHT22;13455;51.480;7.594;2024-02-28T20:11:07;6.80;99.90
25568;DHT22;13455;51.480;7.594;2024-02-28T20:13:33;6.90;99.90
25568;DHT22;13455;51.480;7.594;2024-02-28T20:15:59;6.70;99.90
25568;DHT22;13455;51.480;7.594;2024-02-28T20:18:24;6.70;99.90
25568;DHT22;13455;51.480;7.594;2024-02-28T20:20:52;6.60;99.90
25568;DHT22;13455;51.480;7.594;2024-02-28T20:23:18;6.60;99.90
25568;DHT22;13455;51.480;7.594;2024-02-28T20:25:43;6.70;99.90
25568;DHT22;13455;51.480;7.594;2024-02-28T20:28:09;6.70;99.90
25568;DHT22;13455;51.480;7.594;2024-02-28T20:30:36;6.80;99.90
25568;DHT22;13455;51.480;7.594;2024-02-28T20:33:02;6.70;99.90
25568;DHT22;13455;51.480;7.594;2024-02-28T20:35:28;6.70;99.90
25568;DHT22;13455;51.480;7.594;2024-02-28T20:37:55;6.60;99.90
25568;DHT22;13455;51.480;7.594;2024-02-28T20:40:21;6.90;99.90
25568;DHT22;13455;51.480;7.594;2024-02-28T20:42:49;5.70;99.90
25568;DHT22;13455;51.480;7.594;2024-02-28T20:45:14;6.60;99.90
25568;DHT22;13455;51.480;7.594;2024-02-28T20:47:40;6.60;99.90
25568;DHT22;13455;51.480;7.594;2024-02-28T20:50:07;6.70;99.90
25568;DHT22;13455;51.480;7.594;2024-02-28T20:52:33;6.60;99.90
25568;DHT22;13455;51.480;7.594;2024-02-28T20:54:59;6.70;99.90
25568;DHT22;13455;51.480;7.594;2024-02-28T20:59:54;6.60;99.90
25568;DHT22;13455;51.480;7.594;2024-02-28T21:02:21;6.50;99.90
25568;DHT22;13455;51.480;7.594;2024-02-28T21:04:47;6.70;99.90
25568;DHT22;13455;51.480;7.594;2024-02-28T21:09:40;6.60;99.90
25568;DHT22;13455;51.480;7.594;2024-02-28T21:12:13;6.70;99.90
25568;DHT22;13455;51.480;7.594;2024-02-28T21:14:39;6.70;99.90
25568;DHT22;13455;51.480;7.594;2024-02-28T21:17:05;6.60;99.90
25568;DHT22;13455;51.480;7.594;2024-02-28T21:19:34;6.60;99.90
25568;DHT22;13455;51.480;7.594;2024-02-28T21:22:00;6.50;99.90
25568;DHT22;13455;51.480;7.594;2024-02-28T21:24:26;6.70;99.90
25568;DHT22;13455;51.480;7.594;2024-02-28T21:26:51;6.50;99.90
25568;DHT22;13455;51.480;7.594;2024-02-28T21:29:17;6.50;99.90
25568;DHT22;13455;51.480;7.594;2024-02-28T21:31:43;6.50;99.90
25568;DHT22;13455;51.480;7.594;2024-02-28T21:34:08;6.30;99.90
25568;DHT22;13455;51.480;7.594;2024-02-28T21:36:34;6.50;99.90
25568;DHT22;13455;51.480;7.594;2024-02-28T21:39:00;6.40;99.90
25568;DHT22;13455;51.480;7.594;2024-02-28T21:41:25;6.40;99.90
25568;DHT22;13455;51.480;7.594;2024-02-28T21:43:51;6.40;99.90
25568;DHT22;13455;51.480;7.594;2024-02-28T21:46:17;6.50;99.90
25568;DHT22;13455;51.480;7.594;2024-02-28T21:48:43;6.10;99.90
25568;DHT22;13455;51.480;7.594;2024-02-28T21:51:08;6.10;99.90
25568;DHT22;13455;51.480;7.594;2024-02-28T21:53:35;6.20;99.90
25568;DHT22;13455;51.480;7.594;2024-02-28T21:56:01;6.10;99.90
25568;DHT22;13455;51.480;7.594;2024-02-28T21:58:27;6.10;99.90
25568;DHT22;13455;51.480;7.594;2024-02-28T22:00:53;6.00;99.90
25568;DHT22;13455;51.480;7.594;2024-02-28T22:03:19;6.10;99.90
25568;DHT22;13455;51.480;7.594;2024-02-28T22:05:45;6.10;99.90
25568;DHT22;13455;51.480;7.594;2024-02-28T22:08:11;6.00;99.90
25568;DHT22;13455;51.480;7.594;2024-02-28T22:10:37;6.00;99.90
25568;DHT22;13455;51.480;7.594;2024-02-28T22:13:03;6.00;99.90
25568;DHT22;13455;51.480;7.594;2024-02-28T22:15:30;6.00;99.90
25568;DHT22;13455;51.480;7.594;2024-02-28T22:17:55;6.30;99.90
25568;DHT22;13455;51.480;7.594;2024-02-28T22:20:21;5.90;99.90
25568;DHT22;13455;51.480;7.594;2024-02-28T22:22:47;5.80;99.90
25568;DHT22;13455;51.480;7.594;2024-02-28T22:25:13;5.90;99.90
25568;DHT22;13455;51.480;7.594;2024-02-28T22:27:39;5.90;99.90
25568;DHT22;13455;51.480;7.594;2024-02-28T22:30:05;5.90;99.90
25568;DHT22;13455;51.480;7.594;2024-02-28T22:32:31;5.90;99.90
25568;DHT22;13455;51.480;7.594;2024-02-28T22:34:56;5.90;99.90
25568;DHT22;13455;51.480;7.594;2024-02-28T22:37:22;5.90;99.90
25568;DHT22;13455;51.480;7.594;2024-02-28T22:39:48;5.90;99.90
25568;DHT22;13455;51.480;7.594;2024-02-28T22:42:13;5.90;99.90
25568;DHT22;13455;51.480;7.594;2024-02-28T22:44:39;5.90;99.90
25568;DHT22;13455;51.480;7.594;2024-02-28T22:47:05;5.80;99.90
25568;DHT22;13455;51.480;7.594;2024-02-28T22:49:31;5.80;99.90
25568;DHT22;13455;51.480;7.594;2024-02-28T22:51:57;5.80;99.90
25568;DHT22;13455;51.480;7.594;2024-02-28T22:54:22;5.80;99.90
25568;DHT22;13455;51.480;7.594;2024-02-28T22:56:49;5.80;99.90
25568;DHT22;13455;51.480;7.594;2024-02-28T22:59:18;5.80;99.90
25568;DHT22;13455;51.480;7.594;2024-02-28T23:01:44;5.80;99.90
25568;DHT22;13455;51.480;7.594;2024-02-28T23:04:09;5.80;99.90
25568;DHT22;13455;51.480;7.594;2024-02-28T23:06:35;5.80;99.90
25568;DHT22;13455;51.480;7.594;2024-02-28T23:09:01;5.80;99.90
25568;DHT22;13455;51.480;7.594;2024-02-28T23:11:26;5.80;99.90
25568;DHT22;13455;51.480;7.594;2024-02-28T23:13:52;5.80;99.90
25568;DHT22;13455;51.480;7.594;2024-02-28T23:16:17;5.80;99.90
25568;DHT22;13455;51.480;7.594;2024-02-28T23:18:44;5.80;99.90
25568;DHT22;13455;51.480;7.594;2024-02-28T23:21:09;5.80;99.90
25568;DHT22;13455;51.480;7.594;2024-02-28T23:23:35;5.70;99.90
25568;DHT22;13455;51.480;7.594;2024-02-28T23:26:02;5.70;99.90
25568;DHT22;13455;51.480;7.594;2024-02-28T23:28:28;5.70;99.90
25568;DHT22;13455;51.480;7.594;2024-02-28T23:30:54;5.70;99.90
25568;DHT22;13455;51.480;7.594;2024-02-28T23:33:19;5.70;99.90
